sensor_id;sensor_type;location;lat;lon;timestamp;pressure;altitude;pressure_sealevel;temperature;humidity
7918;BME280;4004;42.624;23.386;2022-09-01T00:00:24;93993.78;;;17.99;100.00
7918;BME280;4004;42.624;23.386;2022-09-01T00:02:53;93989.72;;;17.77;100.00
7918;BME280;4004;42.624;23.386;2022-09-01T00:05:20;93979.88;;;17.49;100.00
7918;BME280;4004;42.624;23.386;2022-09-01T00:07:47;93980.03;;;17.31;100.00
7918;BME280;4004;42.624;23.386;2022-09-01T00:10:15;93984.41;;;17.21;100.00
7918;BME280;4004;42.624;23.386;2022-09-01T00:12:42;93981.72;;;17.17;100.00
7918;BME280;4004;42.624;23.386;2022-09-01T00:15:11;93977.09;;;17.11;100.00
7918;BME280;4004;42.624;23.386;2022-09-01T00:17:39;93979.44;;;17.09;100.00
7918;BME280;4004;42.624;23.386;2022-09-01T00:20:07;93975.66;;;16.95;100.00
7918;BME280;4004;42.624;23.386;2022-09-01T00:22:35;93944.00;;;16.74;100.00
7918;BME280;4004;42.624;23.386;2022-09-01T00:25:02;93976.94;;;16.76;100.00
7918;BME280;4004;42.624;23.386;2022-09-01T00:27:30;93975.81;;;16.67;100.00
7918;BME280;4004;42.624;23.386;2022-09-01T00:29:58;93909.88;;;16.10;100.00
7918;BME280;4004;42.624;23.386;2022-09-01T00:32:25;93962.41;;;16.38;100.00
7918;BME280;4004;42.624;23.386;2022-09-01T00:34:53;93972.56;;;16.27;100.00
7918;BME280;4004;42.624;23.386;2022-09-01T00:37:20;93975.63;;;16.32;100.00
7918;BME280;4004;42.624;23.386;2022-09-01T00:39:46;93970.56;;;16.38;100.00
7918;BME280;4004;42.624;23.386;2022-09-01T00:42:13;93969.78;;;16.41;100.00
7918;BME280;4004;42.624;23.386;2022-09-01T00:44:40;93969.75;;;16.48;100.00
7918;BME280;4004;42.624;23.386;2022-09-01T00:47:07;93968.88;;;16.62;100.00
7918;BME280;4004;42.624;23.386;2022-09-01T00:49:37;93971.97;;;16.68;100.00
7918;BME280;4004;42.624;23.386;2022-09-01T00:52:11;93948.34;;;16.57;100.00
7918;BME280;4004;42.624;23.386;2022-09-01T00:54:41;93958.38;;;16.68;100.00
7918;BME280;4004;42.624;23.386;2022-09-01T00:57:10;93987.75;;;16.87;100.00
7918;BME280;4004;42.624;23.386;2022-09-01T00:59:46;93985.00;;;16.91;100.00
7918;BME280;4004;42.624;23.386;2022-09-01T01:02:15;93988.91;;;16.90;100.00
7918;BME280;4004;42.624;23.386;2022-09-01T01:04:42;93995.44;;;16.96;100.00
7918;BME280;4004;42.624;23.386;2022-09-01T01:07:12;93997.50;;;16.81;100.00
7918;BME280;4004;42.624;23.386;2022-09-01T01:09:41;93992.84;;;16.74;100.00
7918;BME280;4004;42.624;23.386;2022-09-01T01:12:10;93997.56;;;16.63;100.00
7918;BME280;4004;42.624;23.386;2022-09-01T01:14:43;93999.88;;;16.68;100.00
7918;BME280;4004;42.624;23.386;2022-09-01T01:17:14;94004.50;;;16.71;100.00
7918;BME280;4004;42.624;23.386;2022-09-01T01:19:43;93996.78;;;16.66;100.00
7918;BME280;4004;42.624;23.386;2022-09-01T01:22:35;93991.34;;;16.70;100.00
7918;BME280;4004;42.624;23.386;2022-09-01T01:25:23;94000.25;;;16.67;100.00
7918;BME280;4004;42.624;23.386;2022-09-01T01:27:50;94000.63;;;16.69;100.00
7918;BME280;4004;42.624;23.386;2022-09-01T01:30:18;93999.84;;;16.72;100.00
7918;BME280;4004;42.624;23.386;2022-09-01T01:32:45;94007.94;;;16.79;100.00
7918;BME280;4004;42.624;23.386;2022-09-01T01:35:15;93999.84;;;16.72;100.00
7918;BME280;4004;42.624;23.386;2022-09-01T01:37:46;93997.91;;;16.69;100.00
7918;BME280;4004;42.624;23.386;2022-09-01T01:40:16;93999.88;;;16.68;100.00
7918;BME280;4004;42.624;23.386;2022-09-01T01:42:46;94007.19;;;16.78;100.00
7918;BME280;4004;42.624;23.386;2022-09-01T01:45:15;94006.03;;;16.80;100.00
7918;BME280;4004;42.624;23.386;2022-09-01T01:47:43;94007.59;;;16.73;100.00
7918;BME280;4004;42.624;23.386;2022-09-01T01:50:12;94011.44;;;16.76;100.00
7918;BME280;4004;42.624;23.386;2022-09-01T01:52:39;94007.69;;;16.55;100.00
7918;BME280;4004;42.624;23.386;2022-09-01T01:55:08;94004.72;;;16.32;100.00
7918;BME280;4004;42.624;23.386;2022-09-01T01:57:37;94021.03;;;16.21;100.00
7918;BME280;4004;42.624;23.386;2022-09-01T02:00:07;94016.38;;;16.18;100.00
7918;BME280;4004;42.624;23.386;2022-09-01T02:02:35;94013.31;;;16.12;100.00
7918;BME280;4004;42.624;23.386;2022-09-01T02:05:05;94019.88;;;16.19;100.00
7918;BME280;4004;42.624;23.386;2022-09-01T02:07:32;94017.13;;;16.26;100.00
7918;BME280;4004;42.624;23.386;2022-09-01T02:09:59;94020.22;;;16.28;100.00
7918;BME280;4004;42.624;23.386;2022-09-01T02:12:26;94013.63;;;16.29;100.00
7918;BME280;4004;42.624;23.386;2022-09-01T02:14:53;94025.63;;;16.39;100.00
7918;BME280;4004;42.624;23.386;2022-09-01T02:17:22;94021.72;;;16.36;100.00
7918;BME280;4004;42.624;23.386;2022-09-01T02:19:51;94023.28;;;16.37;100.00
7918;BME280;4004;42.624;23.386;2022-09-01T02:22:21;94029.09;;;16.39;100.00
7918;BME280;4004;42.624;23.386;2022-09-01T02:24:48;94028.31;;;16.35;100.00
7918;BME280;4004;42.624;23.386;2022-09-01T02:27:18;94021.72;;;16.40;100.00
7918;BME280;4004;42.624;23.386;2022-09-01T02:29:51;94022.13;;;16.34;100.00
7918;BME280;4004;42.624;23.386;2022-09-01T02:32:18;94022.13;;;16.34;100.00
7918;BME280;4004;42.624;23.386;2022-09-01T02:34:47;94021.72;;;16.43;100.00
7918;BME280;4004;42.624;23.386;2022-09-01T02:37:18;94021.31;;;16.45;100.00
7918;BME280;4004;42.624;23.386;2022-09-01T02:39:50;94017.50;;;16.28;100.00
7918;BME280;4004;42.624;23.386;2022-09-01T02:42:18;94012.47;;;16.30;100.00
7918;BME280;4004;42.624;23.386;2022-09-01T02:44:51;94009.00;;;16.26;100.00
7918;BME280;4004;42.624;23.386;2022-09-01T02:47:18;94007.44;;;16.28;100.00
7918;BME280;4004;42.624;23.386;2022-09-01T02:49:45;93997.72;;;16.27;100.00
7918;BME280;4004;42.624;23.386;2022-09-01T02:52:13;94005.53;;;16.25;100.00
7918;BME280;4004;42.624;23.386;2022-09-01T02:54:43;93995.06;;;16.24;100.00
7918;BME280;4004;42.624;23.386;2022-09-01T02:57:11;94002.00;;;16.25;100.00
7918;BME280;4004;42.624;23.386;2022-09-01T02:59:38;93996.59;;;16.25;100.00
7918;BME280;4004;42.624;23.386;2022-09-01T03:02:06;94000.06;;;16.29;100.00
7918;BME280;4004;42.624;23.386;2022-09-01T03:04:33;94001.19;;;16.31;100.00
7918;BME280;4004;42.624;23.386;2022-09-01T03:07:00;94004.28;;;16.37;100.00
7918;BME280;4004;42.624;23.386;2022-09-01T03:09:28;94002.34;;;16.37;100.00
7918;BME280;4004;42.624;23.386;2022-09-01T03:11:57;93999.28;;;16.28;100.00
7918;BME280;4004;42.624;23.386;2022-09-01T03:14:24;94003.22;;;16.16;100.00
7918;BME280;4004;42.624;23.386;2022-09-01T03:16:51;94002.47;;;16.09;100.00
7918;BME280;4004;42.624;23.386;2022-09-01T03:19:18;94005.63;;;15.86;100.00
7918;BME280;4004;42.624;23.386;2022-09-01T03:21:45;93999.44;;;15.82;100.00
7918;BME280;4004;42.624;23.386;2022-09-01T03:24:15;93996.38;;;15.72;100.00
7918;BME280;4004;42.624;23.386;2022-09-01T03:26:45;93996.75;;;15.71;100.00
7918;BME280;4004;42.624;23.386;2022-09-01T03:29:14;94004.91;;;15.46;100.00
7918;BME280;4004;42.624;23.386;2022-09-01T03:31:41;93996.00;;;15.38;100.00
7918;BME280;4004;42.624;23.386;2022-09-01T03:34:08;94001.41;;;15.38;100.00
7918;BME280;4004;42.624;23.386;2022-09-01T03:36:36;94001.81;;;15.33;100.00
7918;BME280;4004;42.624;23.386;2022-09-01T03:39:04;94000.28;;;15.28;100.00
7918;BME280;4004;42.624;23.386;2022-09-01T03:41:31;94001.44;;;15.27;100.00
7918;BME280;4004;42.624;23.386;2022-09-01T03:44:00;94005.31;;;15.26;100.00
7918;BME280;4004;42.624;23.386;2022-09-01T03:46:28;94006.84;;;15.34;100.00
7918;BME280;4004;42.624;23.386;2022-09-01T03:48:57;94008.00;;;15.41;100.00
7918;BME280;4004;42.624;23.386;2022-09-01T03:51:26;94010.34;;;15.39;100.00
7918;BME280;4004;42.624;23.386;2022-09-01T03:53:56;94004.91;;;15.46;100.00
7918;BME280;4004;42.624;23.386;2022-09-01T03:56:25;94004.91;;;15.53;100.00
7918;BME280;4004;42.624;23.386;2022-09-01T03:58:52;94007.59;;;15.57;100.00
7918;BME280;4004;42.624;23.386;2022-09-01T04:01:23;93989.41;;;15.57;100.00
7918;BME280;4004;42.624;23.386;2022-09-01T04:03:50;94008.75;;;15.63;100.00
7918;BME280;4004;42.624;23.386;2022-09-01T04:06:17;93998.66;;;15.67;100.00
7918;BME280;4004;42.624;23.386;2022-09-01T04:08:48;94011.44;;;15.81;100.00
7918;BME280;4004;42.624;23.386;2022-09-01T04:11:19;94005.63;;;15.82;100.00
7918;BME280;4004;42.624;23.386;2022-09-01T04:13:48;94007.97;;;15.84;100.00
7918;BME280;4004;42.624;23.386;2022-09-01T04:16:17;93981.63;;;15.66;100.00
7918;BME280;4004;42.624;23.386;2022-09-01T04:18:59;94011.41;;;15.99;100.00
7918;BME280;4004;42.624;23.386;2022-09-01T04:21:28;94005.16;;;16.09;100.00
7918;BME280;4004;42.624;23.386;2022-09-01T04:23:57;94013.31;;;16.12;100.00
7918;BME280;4004;42.624;23.386;2022-09-01T04:26:29;94009.81;;;16.05;100.00
7918;BME280;4004;42.624;23.386;2022-09-01T04:28:56;94009.50;;;15.92;100.00
7918;BME280;4004;42.624;23.386;2022-09-01T04:31:23;94008.31;;;15.93;100.00
7918;BME280;4004;42.624;23.386;2022-09-01T04:33:51;94006.00;;;15.95;100.00
7918;BME280;4004;42.624;23.386;2022-09-01T04:36:21;94004.44;;;15.94;100.00
7918;BME280;4004;42.624;23.386;2022-09-01T04:38:50;94003.25;;;16.02;100.00
7918;BME280;4004;42.624;23.386;2022-09-01T04:41:19;94000.94;;;16.04;100.00
7918;BME280;4004;42.624;23.386;2022-09-01T04:43:47;94007.84;;;16.20;100.00
7918;BME280;4004;42.624;23.386;2022-09-01T04:46:16;94018.63;;;16.41;100.00
7918;BME280;4004;42.624;23.386;2022-09-01T04:48:45;94008.81;;;16.62;100.00
7918;BME280;4004;42.624;23.386;2022-09-01T04:51:13;94004.09;;;17.32;100.00
7918;BME280;4004;42.624;23.386;2022-09-01T04:53:42;94011.38;;;18.26;100.00
7918;BME280;4004;42.624;23.386;2022-09-01T04:56:13;94007.72;;;19.24;100.00
7918;BME280;4004;42.624;23.386;2022-09-01T04:58:44;94011.44;;;20.25;100.00
7918;BME280;4004;42.624;23.386;2022-09-01T05:01:15;94021.72;;;21.14;91.65
7918;BME280;4004;42.624;23.386;2022-09-01T05:03:42;94022.19;;;21.61;87.29
7918;BME280;4004;42.624;23.386;2022-09-01T05:06:12;94017.94;;;22.06;83.28
7918;BME280;4004;42.624;23.386;2022-09-01T05:08:39;94025.84;;;22.33;80.88
7918;BME280;4004;42.624;23.386;2022-09-01T05:11:07;94023.06;;;22.04;82.45
7918;BME280;4004;42.624;23.386;2022-09-01T05:13:36;94018.06;;;21.69;83.66
7918;BME280;4004;42.624;23.386;2022-09-01T05:16:06;94020.56;;;21.64;85.13
7918;BME280;4004;42.624;23.386;2022-09-01T05:18:38;94017.72;;;21.84;84.79
7918;BME280;4004;42.624;23.386;2022-09-01T05:21:06;94014.13;;;21.87;84.40
7918;BME280;4004;42.624;23.386;2022-09-01T05:23:35;94022.78;;;22.14;82.52
7918;BME280;4004;42.624;23.386;2022-09-01T05:26:02;94015.22;;;22.19;80.82
7918;BME280;4004;42.624;23.386;2022-09-01T05:28:33;94022.78;;;22.14;81.04
7918;BME280;4004;42.624;23.386;2022-09-01T05:31:00;94019.81;;;22.09;81.32
7918;BME280;4004;42.624;23.386;2022-09-01T05:33:27;94009.84;;;21.86;83.03
7918;BME280;4004;42.624;23.386;2022-09-01T05:35:55;94013.09;;;21.97;83.35
7918;BME280;4004;42.624;23.386;2022-09-01T05:38:25;94024.09;;;22.10;83.05
7918;BME280;4004;42.624;23.386;2022-09-01T05:40:56;94023.56;;;22.15;82.46
7918;BME280;4004;42.624;23.386;2022-09-01T05:43:23;94015.19;;;22.22;81.14
7918;BME280;4004;42.624;23.386;2022-09-01T05:45:53;94020.47;;;22.29;81.35
7918;BME280;4004;42.624;23.386;2022-09-01T05:48:20;94020.38;;;22.33;83.46
7918;BME280;4004;42.624;23.386;2022-09-01T05:50:48;94017.84;;;22.26;85.72
7918;BME280;4004;42.624;23.386;2022-09-01T05:53:17;94020.25;;;22.37;85.18
7918;BME280;4004;42.624;23.386;2022-09-01T05:55:45;94016.53;;;22.30;85.69
7918;BME280;4004;42.624;23.386;2022-09-01T05:58:15;94024.13;;;22.39;84.05
7918;BME280;4004;42.624;23.386;2022-09-01T06:00:43;94025.78;;;22.49;83.88
7918;BME280;4004;42.624;23.386;2022-09-01T06:03:15;94019.44;;;22.52;84.09
7918;BME280;4004;42.624;23.386;2022-09-01T06:05:42;94018.41;;;22.17;85.61
7918;BME280;4004;42.624;23.386;2022-09-01T06:08:18;94023.97;;;22.13;86.26
7918;BME280;4004;42.624;23.386;2022-09-01T06:10:46;94012.63;;;21.99;87.70
7918;BME280;4004;42.624;23.386;2022-09-01T06:13:15;94011.97;;;21.94;88.67
7918;BME280;4004;42.624;23.386;2022-09-01T06:15:46;94009.44;;;22.17;86.63
7918;BME280;4004;42.624;23.386;2022-09-01T06:18:15;94009.88;;;22.44;85.97
7918;BME280;4004;42.624;23.386;2022-09-01T06:20:45;94013.78;;;22.72;84.65
7918;BME280;4004;42.624;23.386;2022-09-01T06:23:13;94014.72;;;23.33;80.41
7918;BME280;4004;42.624;23.386;2022-09-01T06:25:42;94013.69;;;23.66;79.25
7918;BME280;4004;42.624;23.386;2022-09-01T06:28:10;94011.38;;;24.12;75.37
7918;BME280;4004;42.624;23.386;2022-09-01T06:30:38;93997.84;;;24.52;70.74
7918;BME280;4004;42.624;23.386;2022-09-01T06:33:05;94014.06;;;24.59;69.43
7918;BME280;4004;42.624;23.386;2022-09-01T06:35:37;94014.09;;;24.91;68.02
7918;BME280;4004;42.624;23.386;2022-09-01T06:38:05;94019.84;;;24.84;68.71
7918;BME280;4004;42.624;23.386;2022-09-01T06:40:33;94012.50;;;24.58;70.77
7918;BME280;4004;42.624;23.386;2022-09-01T06:43:00;94011.00;;;24.57;69.18
7918;BME280;4004;42.624;23.386;2022-09-01T06:45:33;94007.50;;;24.22;70.21
7918;BME280;4004;42.624;23.386;2022-09-01T06:48:01;94000.03;;;24.23;70.77
7918;BME280;4004;42.624;23.386;2022-09-01T06:50:28;94010.91;;;24.70;69.20
7918;BME280;4004;42.624;23.386;2022-09-01T06:52:57;93998.19;;;24.41;69.53
7918;BME280;4004;42.624;23.386;2022-09-01T06:55:35;94002.25;;;24.15;70.39
7918;BME280;4004;42.624;23.386;2022-09-01T06:58:03;94001.94;;;24.13;71.11
7918;BME280;4004;42.624;23.386;2022-09-01T07:00:32;94004.38;;;24.33;70.49
7918;BME280;4004;42.624;23.386;2022-09-01T07:03:04;94005.84;;;24.91;68.07
7918;BME280;4004;42.624;23.386;2022-09-01T07:05:37;94016.44;;;25.01;65.98
7918;BME280;4004;42.624;23.386;2022-09-01T07:08:06;94007.22;;;24.95;66.14
7918;BME280;4004;42.624;23.386;2022-09-01T07:10:39;94008.31;;;25.29;65.59
7918;BME280;4004;42.624;23.386;2022-09-01T07:13:10;94006.59;;;25.22;64.28
7918;BME280;4004;42.624;23.386;2022-09-01T07:15:40;94015.06;;;25.37;64.30
7918;BME280;4004;42.624;23.386;2022-09-01T07:18:07;94015.38;;;25.39;63.73
7918;BME280;4004;42.624;23.386;2022-09-01T07:20:34;94010.00;;;25.05;65.66
7918;BME280;4004;42.624;23.386;2022-09-01T07:23:05;94010.97;;;25.11;66.52
7918;BME280;4004;42.624;23.386;2022-09-01T07:25:32;94009.88;;;25.39;65.09
7918;BME280;4004;42.624;23.386;2022-09-01T07:28:03;94000.63;;;25.83;62.51
7918;BME280;4004;42.624;23.386;2022-09-01T07:30:30;93998.41;;;25.91;61.18
7918;BME280;4004;42.624;23.386;2022-09-01T07:32:58;94000.53;;;25.96;62.40
7918;BME280;4004;42.624;23.386;2022-09-01T07:35:25;94006.53;;;26.22;60.96
7918;BME280;4004;42.624;23.386;2022-09-01T07:37:52;94000.34;;;26.82;58.27
7918;BME280;4004;42.624;23.386;2022-09-01T07:40:21;94010.28;;;27.41;55.29
7918;BME280;4004;42.624;23.386;2022-09-01T07:42:54;94006.44;;;27.72;53.68
7918;BME280;4004;42.624;23.386;2022-09-01T07:45:21;94010.72;;;28.06;52.47
7918;BME280;4004;42.624;23.386;2022-09-01T07:47:50;94008.72;;;28.06;50.78
7918;BME280;4004;42.624;23.386;2022-09-01T07:50:18;94007.94;;;28.06;51.28
7918;BME280;4004;42.624;23.386;2022-09-01T07:52:45;94011.41;;;28.16;50.18
7918;BME280;4004;42.624;23.386;2022-09-01T07:55:15;94012.59;;;28.00;50.72
7918;BME280;4004;42.624;23.386;2022-09-01T07:57:43;94012.22;;;27.49;52.02
7918;BME280;4004;42.624;23.386;2022-09-01T08:00:12;93998.56;;;27.13;53.45
7918;BME280;4004;42.624;23.386;2022-09-01T08:02:39;94003.03;;;27.01;53.61
7918;BME280;4004;42.624;23.386;2022-09-01T08:05:09;94007.31;;;27.11;53.35
7918;BME280;4004;42.624;23.386;2022-09-01T08:07:38;94005.69;;;27.38;52.58
7918;BME280;4004;42.624;23.386;2022-09-01T08:10:06;94001.38;;;27.70;51.63
7918;BME280;4004;42.624;23.386;2022-09-01T08:12:33;94006.88;;;28.03;51.04
7918;BME280;4004;42.624;23.386;2022-09-01T08:15:03;94008.22;;;28.08;49.54
7918;BME280;4004;42.624;23.386;2022-09-01T08:17:31;94006.94;;;27.94;50.13
7918;BME280;4004;42.624;23.386;2022-09-01T08:19:58;93997.66;;;27.49;51.40
7918;BME280;4004;42.624;23.386;2022-09-01T08:22:25;93998.91;;;27.48;51.56
7918;BME280;4004;42.624;23.386;2022-09-01T08:24:52;94002.78;;;27.41;52.10
7918;BME280;4004;42.624;23.386;2022-09-01T08:27:19;94002.91;;;27.47;52.69
7918;BME280;4004;42.624;23.386;2022-09-01T08:29:46;94003.63;;;27.81;51.47
7918;BME280;4004;42.624;23.386;2022-09-01T08:32:14;93999.91;;;27.93;50.60
7918;BME280;4004;42.624;23.386;2022-09-01T08:34:41;93999.66;;;28.06;49.68
7918;BME280;4004;42.624;23.386;2022-09-01T08:37:08;93998.25;;;28.10;49.34
7918;BME280;4004;42.624;23.386;2022-09-01T08:39:35;93995.41;;;28.20;48.67
7918;BME280;4004;42.624;23.386;2022-09-01T08:42:06;94001.78;;;27.87;49.30
7918;BME280;4004;42.624;23.386;2022-09-01T08:44:41;93992.78;;;27.44;50.85
7918;BME280;4004;42.624;23.386;2022-09-01T08:47:15;93991.06;;;27.13;51.99
7918;BME280;4004;42.624;23.386;2022-09-01T08:49:44;93979.56;;;27.05;52.22
7918;BME280;4004;42.624;23.386;2022-09-01T08:52:18;93969.28;;;26.73;52.43
7918;BME280;4004;42.624;23.386;2022-09-01T08:54:50;93984.19;;;26.20;54.31
7918;BME280;4004;42.624;23.386;2022-09-01T08:57:21;93982.91;;;25.75;55.75
7918;BME280;4004;42.624;23.386;2022-09-01T08:59:51;93975.50;;;25.53;57.40
7918;BME280;4004;42.624;23.386;2022-09-01T09:02:30;93974.50;;;25.19;58.68
7918;BME280;4004;42.624;23.386;2022-09-01T09:05:03;93962.28;;;25.20;58.80
7918;BME280;4004;42.624;23.386;2022-09-01T09:07:45;93970.88;;;25.41;57.70
7918;BME280;4004;42.624;23.386;2022-09-01T09:10:17;93961.88;;;25.40;58.25
7918;BME280;4004;42.624;23.386;2022-09-01T09:12:59;93959.75;;;25.44;58.02
7918;BME280;4004;42.624;23.386;2022-09-01T09:15:32;93960.03;;;25.37;58.79
7918;BME280;4004;42.624;23.386;2022-09-01T09:18:12;93960.91;;;25.25;59.40
7918;BME280;4004;42.624;23.386;2022-09-01T09:20:42;93961.53;;;25.29;59.33
7918;BME280;4004;42.624;23.386;2022-09-01T09:23:16;93962.91;;;25.34;59.13
7918;BME280;4004;42.624;23.386;2022-09-01T09:25:47;93961.53;;;25.29;60.01
7918;BME280;4004;42.624;23.386;2022-09-01T09:28:15;93948.06;;;25.22;60.31
7918;BME280;4004;42.624;23.386;2022-09-01T09:30:42;93952.38;;;25.32;59.84
7918;BME280;4004;42.624;23.386;2022-09-01T09:33:33;93958.50;;;25.46;59.41
7918;BME280;4004;42.624;23.386;2022-09-01T09:36:17;93956.44;;;25.68;58.90
7918;BME280;4004;42.624;23.386;2022-09-01T09:38:45;93943.41;;;25.59;59.32
7918;BME280;4004;42.624;23.386;2022-09-01T09:41:17;93941.56;;;25.56;59.55
7918;BME280;4004;42.624;23.386;2022-09-01T09:43:47;93918.97;;;25.12;61.02
7918;BME280;4004;42.624;23.386;2022-09-01T09:46:26;93945.63;;;25.24;62.44
7918;BME280;4004;42.624;23.386;2022-09-01T09:49:09;93942.78;;;25.06;61.31
7918;BME280;4004;42.624;23.386;2022-09-01T09:51:36;93941.66;;;24.94;61.50
7918;BME280;4004;42.624;23.386;2022-09-01T09:54:11;93936.19;;;25.03;60.81
7918;BME280;4004;42.624;23.386;2022-09-01T09:56:40;93935.78;;;25.14;61.14
7918;BME280;4004;42.624;23.386;2022-09-01T09:59:22;93927.84;;;25.16;59.99
7918;BME280;4004;42.624;23.386;2022-09-01T10:01:49;93937.50;;;25.20;60.11
7918;BME280;4004;42.624;23.386;2022-09-01T10:04:34;93933.25;;;25.19;59.51
7918;BME280;4004;42.624;23.386;2022-09-01T10:07:22;93926.00;;;25.03;59.91
7918;BME280;4004;42.624;23.386;2022-09-01T10:09:50;93928.59;;;25.16;59.68
7918;BME280;4004;42.624;23.386;2022-09-01T10:12:17;93932.59;;;25.15;60.22
7918;BME280;4004;42.624;23.386;2022-09-01T10:14:47;93913.41;;;25.34;59.63
7918;BME280;4004;42.624;23.386;2022-09-01T10:17:20;93914.66;;;25.60;58.17
7918;BME280;4004;42.624;23.386;2022-09-01T10:19:52;93920.03;;;25.82;56.94
7918;BME280;4004;42.624;23.386;2022-09-01T10:22:22;93922.19;;;26.06;56.14
7918;BME280;4004;42.624;23.386;2022-09-01T10:24:50;93916.81;;;26.21;54.57
7918;BME280;4004;42.624;23.386;2022-09-01T10:27:21;93914.63;;;26.34;53.82
7918;BME280;4004;42.624;23.386;2022-09-01T10:29:53;93893.06;;;26.33;53.03
7918;BME280;4004;42.624;23.386;2022-09-01T10:32:25;93922.41;;;26.63;51.68
7918;BME280;4004;42.624;23.386;2022-09-01T10:34:57;93921.66;;;26.54;49.58
7918;BME280;4004;42.624;23.386;2022-09-01T10:37:24;93916.13;;;26.54;49.13
7918;BME280;4004;42.624;23.386;2022-09-01T10:40:17;93917.97;;;26.57;48.84
7918;BME280;4004;42.624;23.386;2022-09-01T10:42:45;93917.38;;;26.53;49.05
7918;BME280;4004;42.624;23.386;2022-09-01T10:45:28;93917.38;;;26.53;49.55
7918;BME280;4004;42.624;23.386;2022-09-01T10:48:23;93915.53;;;26.50;50.62
7918;BME280;4004;42.624;23.386;2022-09-01T10:51:33;93912.16;;;26.45;50.33
7918;BME280;4004;42.624;23.386;2022-09-01T10:53:43;93906.41;;;26.25;51.30
7918;BME280;4004;42.624;23.386;2022-09-01T10:56:14;93900.69;;;26.47;50.35
7918;BME280;4004;42.624;23.386;2022-09-01T10:58:59;93904.97;;;26.57;50.38
7918;BME280;4004;42.624;23.386;2022-09-01T11:05:09;93901.06;;;26.82;48.98
7918;BME280;4004;42.624;23.386;2022-09-01T11:07:38;93894.78;;;26.82;49.50
7918;BME280;4004;42.624;23.386;2022-09-01T11:10:29;93895.44;;;27.01;49.02
7918;BME280;4004;42.624;23.386;2022-09-01T11:13:25;93896.09;;;27.29;47.13
7918;BME280;4004;42.624;23.386;2022-09-01T11:15:55;93882.59;;;27.55;46.15
7918;BME280;4004;42.624;23.386;2022-09-01T11:18:42;93886.69;;;27.84;46.17
7918;BME280;4004;42.624;23.386;2022-09-01T11:21:23;93889.09;;;27.91;45.94
7918;BME280;4004;42.624;23.386;2022-09-01T11:26:57;93882.72;;;28.15;45.38
7918;BME280;4004;42.624;23.386;2022-09-01T11:29:49;93872.81;;;28.23;45.39
7918;BME280;4004;42.624;23.386;2022-09-01T11:32:18;93873.28;;;28.21;45.58
7918;BME280;4004;42.624;23.386;2022-09-01T11:34:48;93870.63;;;28.12;46.12
7918;BME280;4004;42.624;23.386;2022-09-01T11:37:20;93867.94;;;28.03;46.84
7918;BME280;4004;42.624;23.386;2022-09-01T11:39:51;93861.09;;;27.98;47.13
7918;BME280;4004;42.624;23.386;2022-09-01T11:42:20;93862.34;;;27.97;48.16
7918;BME280;4004;42.624;23.386;2022-09-01T11:44:52;93855.38;;;28.02;48.45
7918;BME280;4004;42.624;23.386;2022-09-01T11:47:24;93846.88;;;28.05;49.04
7918;BME280;4004;42.624;23.386;2022-09-01T11:49:55;93843.34;;;27.90;49.07
7918;BME280;4004;42.624;23.386;2022-09-01T11:52:25;93801.44;;;27.92;48.80
7918;BME280;4004;42.624;23.386;2022-09-01T11:54:56;93818.69;;;28.01;49.05
7918;BME280;4004;42.624;23.386;2022-09-01T11:57:27;93827.13;;;27.83;49.04
7918;BME280;4004;42.624;23.386;2022-09-01T11:59:56;93820.19;;;27.73;48.80
7918;BME280;4004;42.624;23.386;2022-09-01T12:02:26;93827.88;;;27.68;48.52
7918;BME280;4004;42.624;23.386;2022-09-01T12:04:58;93829.84;;;27.53;48.98
7918;BME280;4004;42.624;23.386;2022-09-01T12:07:34;93821.44;;;27.47;49.40
7918;BME280;4004;42.624;23.386;2022-09-01T12:10:13;93818.44;;;27.21;50.79
7918;BME280;4004;42.624;23.386;2022-09-01T12:12:40;93824.53;;;27.16;51.27
7918;BME280;4004;42.624;23.386;2022-09-01T12:15:09;93821.47;;;27.23;50.70
7918;BME280;4004;42.624;23.386;2022-09-01T12:17:42;93821.31;;;27.18;51.29
7918;BME280;4004;42.624;23.386;2022-09-01T12:20:30;93828.94;;;26.99;51.43
7918;BME280;4004;42.624;23.386;2022-09-01T12:22:58;93821.38;;;26.84;52.60
7918;BME280;4004;42.624;23.386;2022-09-01T12:25:29;93816.09;;;26.96;52.61
7918;BME280;4004;42.624;23.386;2022-09-01T12:27:58;93818.78;;;27.05;52.18
7918;BME280;4004;42.624;23.386;2022-09-01T12:30:26;93821.09;;;27.06;52.06
7918;BME280;4004;42.624;23.386;2022-09-01T12:32:53;93815.16;;;26.99;52.96
7918;BME280;4004;42.624;23.386;2022-09-01T12:35:23;93816.56;;;27.18;52.67
7918;BME280;4004;42.624;23.386;2022-09-01T12:37:50;93814.81;;;27.30;52.70
7918;BME280;4004;42.624;23.386;2022-09-01T12:40:22;93815.97;;;27.62;51.61
7918;BME280;4004;42.624;23.386;2022-09-01T12:42:52;93806.06;;;27.70;50.97
7918;BME280;4004;42.624;23.386;2022-09-01T12:45:36;93812.56;;;27.82;50.20
7918;BME280;4004;42.624;23.386;2022-09-01T12:48:03;93801.72;;;27.94;50.22
7918;BME280;4004;42.624;23.386;2022-09-01T12:50:44;93808.13;;;28.00;50.30
7918;BME280;4004;42.624;23.386;2022-09-01T12:53:20;93814.69;;;28.02;50.11
7918;BME280;4004;42.624;23.386;2022-09-01T12:58:45;93801.75;;;28.08;50.01
7918;BME280;4004;42.624;23.386;2022-09-01T13:01:24;93800.19;;;28.07;49.94
7918;BME280;4004;42.624;23.386;2022-09-01T13:04:11;93804.50;;;28.08;49.97
7918;BME280;4004;42.624;23.386;2022-09-01T13:06:38;93799.34;;;28.16;49.83
7918;BME280;4004;42.624;23.386;2022-09-01T13:09:05;93798.19;;;28.08;49.81
7918;BME280;4004;42.624;23.386;2022-09-01T13:11:32;93758.97;;;27.89;49.87
7918;BME280;4004;42.624;23.386;2022-09-01T13:14:00;93807.53;;;28.25;49.83
7918;BME280;4004;42.624;23.386;2022-09-01T13:16:27;93799.44;;;28.22;49.64
7918;BME280;4004;42.624;23.386;2022-09-01T13:18:54;93796.88;;;28.33;49.21
7918;BME280;4004;42.624;23.386;2022-09-01T13:21:21;93790.25;;;28.45;48.68
7918;BME280;4004;42.624;23.386;2022-09-01T13:23:48;93789.34;;;28.48;48.44
7918;BME280;4004;42.624;23.386;2022-09-01T13:26:15;93794.56;;;28.31;48.99
7918;BME280;4004;42.624;23.386;2022-09-01T13:28:42;93803.44;;;28.21;49.61
7918;BME280;4004;42.624;23.386;2022-09-01T13:31:11;93804.03;;;27.95;50.09
7918;BME280;4004;42.624;23.386;2022-09-01T13:33:38;93809.31;;;27.84;52.75